createdAt,value
2018-11-21T00:00:05.424Z,17.47
2018-11-21T00:02:53.655Z,16.43
2018-11-21T00:05:35.000Z,16.90
2018-11-21T00:08:16.572Z,15.20
2018-11-21T00:10:57.595Z,17.30
2018-11-21T00:13:26.644Z,15.47
2018-11-21T00:15:55.702Z,16.07
2018-11-21T00:18:24.920Z,17.50
2018-11-21T00:20:53.845Z,16.80
2018-11-21T00:26:36.633Z,16.10
2018-11-21T00:29:17.692Z,15.57
2018-11-21T00:31:59.412Z,16.60
2018-11-21T00:34:40.825Z,16.77
2018-11-21T00:37:21.762Z,16.97
2018-11-21T00:40:02.763Z,14.60
2018-11-21T00:42:46.984Z,15.43
2018-11-21T00:45:25.757Z,16.00
2018-11-21T00:48:06.673Z,15.63
2018-11-21T00:50:47.641Z,16.23
2018-11-21T00:53:16.748Z,16.63
2018-11-21T00:56:14.675Z,15.90
2018-11-21T00:59:06.082Z,18.03
2018-11-21T01:01:54.488Z,16.43
2018-11-21T01:04:35.697Z,16.10
2018-11-21T01:07:16.718Z,15.27
2018-11-21T01:09:57.983Z,15.07
2018-11-21T01:12:38.873Z,16.97
2018-11-21T01:15:20.629Z,15.23
2018-11-21T01:17:49.828Z,15.93
2018-11-21T01:23:35.176Z,16.70
2018-11-21T01:26:16.781Z,16.80
2018-11-21T01:29:33.401Z,16.03
2018-11-21T01:32:02.388Z,16.07
2018-11-21T01:34:50.529Z,15.23
2018-11-21T01:37:38.566Z,14.30
2018-11-21T01:40:21.429Z,15.90
2018-11-21T01:43:03.054Z,14.83
2018-11-21T01:45:46.537Z,16.03
2018-11-21T01:48:27.124Z,23.43
2018-11-21T01:51:07.817Z,17.47
2018-11-21T01:53:52.023Z,16.60
2018-11-21T01:56:40.823Z,15.83
2018-11-21T01:59:18.504Z,16.50
2018-11-21T02:01:49.750Z,17.27
2018-11-21T02:04:37.978Z,17.17
2018-11-21T02:07:20.547Z,15.10
2018-11-21T02:09:52.502Z,16.87
2018-11-21T02:12:40.826Z,15.93
2018-11-21T02:15:21.648Z,17.57
2018-11-21T02:18:02.990Z,16.17
2018-11-21T02:20:44.427Z,16.67
2018-11-21T02:23:25.577Z,18.10
2018-11-21T02:26:06.249Z,17.27
2018-11-21T02:28:50.607Z,15.77
2018-11-21T02:31:31.428Z,17.97
2018-11-21T02:34:12.414Z,18.40
2018-11-21T02:36:53.153Z,16.30
2018-11-21T02:39:33.948Z,18.87
2018-11-21T02:42:14.712Z,16.40
2018-11-21T02:44:56.713Z,15.93
2018-11-21T02:47:40.178Z,17.63
2018-11-21T02:50:42.969Z,15.93
2018-11-21T02:53:31.232Z,16.80
2018-11-21T02:56:00.670Z,17.33
2018-11-21T02:58:48.892Z,16.20
2018-11-21T03:01:30.241Z,15.83
2018-11-21T03:04:12.267Z,16.53
2018-11-21T03:06:53.741Z,16.77
2018-11-21T03:09:34.476Z,17.00
2018-11-21T03:12:15.609Z,16.87
2018-11-21T03:14:56.541Z,14.90
2018-11-21T03:17:37.603Z,18.07
2018-11-21T03:20:18.616Z,15.23
2018-11-21T03:22:59.823Z,15.97
2018-11-21T03:25:29.951Z,16.80
2018-11-21T03:28:25.861Z,18.47
2018-11-21T03:31:07.248Z,18.10
2018-11-21T03:33:48.115Z,15.00
2018-11-21T03:36:29.103Z,18.17
2018-11-21T03:39:10.738Z,14.50
2018-11-21T03:41:52.077Z,16.33
2018-11-21T03:44:33.111Z,16.83
2018-11-21T03:47:13.979Z,16.73
2018-11-21T03:52:32.548Z,15.57
2018-11-21T03:55:21.107Z,15.10
2018-11-21T03:58:01.907Z,14.80
2018-11-21T04:00:42.593Z,15.10
2018-11-21T04:03:23.364Z,15.30
2018-11-21T04:06:04.266Z,15.80
2018-11-21T04:08:45.447Z,15.27
2018-11-21T04:11:26.511Z,15.27
2018-11-21T04:14:08.061Z,15.13
2018-11-21T04:16:47.797Z,15.13
2018-11-21T04:19:28.612Z,15.83
2018-11-21T04:22:09.463Z,15.70
2018-11-21T04:24:51.102Z,15.67
2018-11-21T04:27:31.584Z,20.90
2018-11-21T04:30:13.652Z,16.97
2018-11-21T04:32:55.047Z,16.87
2018-11-21T04:35:36.129Z,17.93
2018-11-21T04:38:17.005Z,19.00
2018-11-21T04:40:58.181Z,14.30
2018-11-21T04:43:27.602Z,14.97
2018-11-21T04:46:16.266Z,14.73
2018-11-21T04:48:57.064Z,15.73
2018-11-21T04:51:37.986Z,17.27
2018-11-21T04:54:19.441Z,17.17
2018-11-21T04:57:00.898Z,17.10
2018-11-21T04:59:42.276Z,16.63
2018-11-21T05:02:24.328Z,17.73
2018-11-21T05:04:53.501Z,25.10
2018-11-21T05:07:22.356Z,16.97
2018-11-21T05:09:51.291Z,16.70
2018-11-21T05:12:40.463Z,15.53
2018-11-21T05:15:28.941Z,15.73
2018-11-21T05:18:12.357Z,16.97
2018-11-21T05:20:53.208Z,16.57
2018-11-21T05:23:34.705Z,16.13
2018-11-21T05:26:15.792Z,16.03
2018-11-21T05:28:56.797Z,13.67
2018-11-21T05:31:25.883Z,16.50
2018-11-21T05:34:14.421Z,15.33
2018-11-21T05:36:55.003Z,15.97
2018-11-21T05:39:39.140Z,15.13
2018-11-21T05:42:20.039Z,16.47
2018-11-21T05:45:01.487Z,17.47
2018-11-21T05:47:43.308Z,19.73
2018-11-21T05:50:29.695Z,15.80
2018-11-21T05:53:11.176Z,15.67
2018-11-21T05:55:55.026Z,15.07
2018-11-21T05:58:35.926Z,14.63
2018-11-21T06:01:44.772Z,15.73
2018-11-21T06:04:26.112Z,15.30
2018-11-21T06:07:09.081Z,15.83
2018-11-21T06:09:50.382Z,16.37
2018-11-21T06:12:31.593Z,16.80
2018-11-21T06:15:01.374Z,15.10
2018-11-21T06:17:50.107Z,17.03
2018-11-21T06:20:31.296Z,14.47
2018-11-21T06:23:12.768Z,15.37
2018-11-21T06:25:53.439Z,15.57
2018-11-21T06:28:37.022Z,16.47
2018-11-21T06:31:19.447Z,13.57
2018-11-21T06:33:54.016Z,16.90
2018-11-21T06:36:42.523Z,16.57
2018-11-21T06:39:11.540Z,16.17
2018-11-21T06:41:59.930Z,16.23
2018-11-21T06:44:49.862Z,15.57
2018-11-21T06:47:29.467Z,15.23
2018-11-21T06:50:10.227Z,17.70
2018-11-21T06:52:51.379Z,17.70
2018-11-21T06:55:31.971Z,17.90
2018-11-21T06:58:13.410Z,14.90
2018-11-21T07:00:54.626Z,16.80
2018-11-21T07:03:23.631Z,16.90
2018-11-21T07:09:13.341Z,15.67
2018-11-21T07:11:58.345Z,16.23
2018-11-21T07:14:39.422Z,16.97
2018-11-21T07:17:21.050Z,17.77
2018-11-21T07:20:05.037Z,15.53
2018-11-21T07:22:44.277Z,14.83
2018-11-21T07:25:32.571Z,16.07
2018-11-21T07:28:15.550Z,16.40
2018-11-21T07:31:06.764Z,14.73
2018-11-21T07:33:47.997Z,16.87
2018-11-21T07:39:15.016Z,13.27
2018-11-21T07:41:56.235Z,15.27
2018-11-21T07:44:37.450Z,16.47
2018-11-21T07:50:41.512Z,15.87
2018-11-21T08:02:43.976Z,14.50
2018-11-21T08:05:31.122Z,15.37
2018-11-21T08:08:43.756Z,17.10
2018-11-21T08:12:11.102Z,16.70
2018-11-21T08:15:19.657Z,15.13
2018-11-21T08:18:18.110Z,15.97
2018-11-21T08:21:19.463Z,15.43
2018-11-21T08:27:00.831Z,14.80
2018-11-21T08:29:41.864Z,15.80
2018-11-21T08:32:22.987Z,15.87
2018-11-21T08:35:05.340Z,15.83
2018-11-21T08:37:46.677Z,15.57
2018-11-21T08:40:27.391Z,17.57
2018-11-21T08:43:08.325Z,15.40
2018-11-21T08:45:51.507Z,15.77
2018-11-21T08:48:32.891Z,15.17
2018-11-21T08:51:01.871Z,17.30
2018-11-21T08:53:50.631Z,17.93
2018-11-21T08:56:32.512Z,15.93
2018-11-21T08:59:12.696Z,16.83
2018-11-21T09:01:54.326Z,15.37
2018-11-21T09:04:36.084Z,15.00
2018-11-21T09:07:16.911Z,15.33
2018-11-21T09:09:59.586Z,14.57
2018-11-21T09:12:41.236Z,15.87
2018-11-21T09:15:23.030Z,15.80
2018-11-21T09:18:04.033Z,16.83
2018-11-21T09:20:45.241Z,14.33
2018-11-21T09:23:25.812Z,14.93
2018-11-21T09:26:06.905Z,16.30
2018-11-21T09:28:47.982Z,16.23
2018-11-21T09:31:29.392Z,14.87
2018-11-21T09:34:11.657Z,16.30
2018-11-21T09:36:52.642Z,15.37
2018-11-21T09:39:39.126Z,14.17
2018-11-21T09:42:20.102Z,15.47
2018-11-21T09:45:01.224Z,14.03
2018-11-21T09:47:45.336Z,14.67
2018-11-21T09:50:27.579Z,14.20
2018-11-21T09:52:56.969Z,13.37
2018-11-21T09:55:30.428Z,12.90
2018-11-21T09:58:01.048Z,15.97
2018-11-21T10:01:08.849Z,13.90
2018-11-21T10:03:41.647Z,13.00
2018-11-21T10:06:13.639Z,13.20
2018-11-21T10:08:58.605Z,13.60
2018-11-21T10:11:29.119Z,12.00
2018-11-21T10:13:58.043Z,13.97
2018-11-21T10:16:27.339Z,13.73
2018-11-21T10:19:05.295Z,13.70
2018-11-21T10:21:35.231Z,13.13
2018-11-21T10:24:23.448Z,14.20
2018-11-21T10:27:07.964Z,12.40
2018-11-21T10:29:51.591Z,13.70
2018-11-21T10:32:19.730Z,14.03
2018-11-21T10:37:59.096Z,13.00
2018-11-21T10:40:40.110Z,13.37
2018-11-21T10:43:09.774Z,13.77
2018-11-21T10:45:57.763Z,14.10
2018-11-21T10:48:39.270Z,13.73
2018-11-21T10:51:21.712Z,14.63
2018-11-21T10:53:53.291Z,13.90
2018-11-21T10:56:43.660Z,14.90
2018-11-21T10:59:12.549Z,13.50
2018-11-21T11:02:02.115Z,12.83
2018-11-21T11:04:51.775Z,12.70
2018-11-21T11:07:40.018Z,13.23
2018-11-21T11:10:39.777Z,13.80
2018-11-21T11:13:31.458Z,12.87
2018-11-21T11:16:38.760Z,13.43
2018-11-21T11:19:47.187Z,13.10
2018-11-21T11:22:35.701Z,13.13
2018-11-21T11:26:12.695Z,11.90
2018-11-21T11:29:13.162Z,13.03
2018-11-21T11:32:20.694Z,12.70
2018-11-21T11:35:47.419Z,12.47
2018-11-21T11:38:40.305Z,12.07
2018-11-21T11:41:40.656Z,14.53
2018-11-21T11:44:40.845Z,18.33
2018-11-21T11:47:29.018Z,12.70
2018-11-21T11:50:36.213Z,12.90
2018-11-21T11:53:35.832Z,13.50
2018-11-21T11:56:26.014Z,13.60
2018-11-21T11:59:35.193Z,13.10
2018-11-21T12:02:42.759Z,12.50
2018-11-21T12:05:31.845Z,13.33
2018-11-21T12:08:29.600Z,12.63
2018-11-21T12:11:21.661Z,15.77
2018-11-21T12:14:31.350Z,13.23
2018-11-21T12:17:31.926Z,13.83
2018-11-21T12:20:20.800Z,12.67
2018-11-21T12:23:28.372Z,12.77
2018-11-21T12:26:29.228Z,13.50
2018-11-21T12:29:18.533Z,11.83
2018-11-21T12:32:45.310Z,12.97
2018-11-21T12:35:36.910Z,12.80
2018-11-21T12:39:03.374Z,13.30
2018-11-21T12:41:55.444Z,12.87
2018-11-21T12:48:09.950Z,13.03
2018-11-21T12:51:25.340Z,12.37
2018-11-21T12:54:31.638Z,12.13
2018-11-21T12:57:32.380Z,12.00
2018-11-21T13:00:32.210Z,13.97
2018-11-21T13:03:25.833Z,13.07
2018-11-21T13:06:26.239Z,13.63
2018-11-21T13:09:14.660Z,13.23
2018-11-21T13:15:19.206Z,13.63
2018-11-21T13:18:19.719Z,14.17
2018-11-21T13:21:27.384Z,12.57
2018-11-21T13:24:27.290Z,13.03
2018-11-21T13:27:21.899Z,13.90
2018-11-21T13:30:10.029Z,12.70
2018-11-21T13:33:21.425Z,14.63
2018-11-21T13:36:09.305Z,12.47
2018-11-21T13:39:16.804Z,12.77
2018-11-21T13:42:09.081Z,12.63
2018-11-21T13:45:17.715Z,13.60
2018-11-21T13:47:59.619Z,11.63
2018-11-21T13:51:26.015Z,13.50
2018-11-21T13:54:28.993Z,12.43
2018-11-21T13:57:10.150Z,12.60
2018-11-21T13:59:41.971Z,13.07
2018-11-21T14:02:30.040Z,11.37
2018-11-21T14:05:11.175Z,11.30
2018-11-21T14:07:52.483Z,12.00
2018-11-21T14:10:35.659Z,11.87
2018-11-21T14:13:16.570Z,10.97
2018-11-21T14:15:57.765Z,11.40
2018-11-21T14:18:29.492Z,10.97
2018-11-21T14:21:00.724Z,12.37
2018-11-21T14:23:49.394Z,12.07
2018-11-21T14:26:32.723Z,13.60
2018-11-21T14:29:21.090Z,11.10
2018-11-21T14:34:49.000Z,11.27
2018-11-21T14:37:30.475Z,11.57
2018-11-21T14:40:13.623Z,12.23
2018-11-21T14:42:56.652Z,10.63
2018-11-21T14:45:37.324Z,12.67
2018-11-21T14:48:18.527Z,12.37
2018-11-21T14:50:59.465Z,11.73
2018-11-21T14:53:42.973Z,11.50
2018-11-21T14:56:11.983Z,11.47
2018-11-21T14:58:41.309Z,12.63
2018-11-21T15:01:29.968Z,12.43
2018-11-21T15:06:56.903Z,12.20
2018-11-21T15:09:37.758Z,11.27
2018-11-21T15:12:22.941Z,12.23
2018-11-21T15:15:02.495Z,13.03
2018-11-21T15:17:32.555Z,12.07
2018-11-21T15:20:07.197Z,12.60
2018-11-21T15:22:35.823Z,11.80
2018-11-21T15:25:26.889Z,11.97
2018-11-21T15:28:15.115Z,11.93
2018-11-21T15:31:01.740Z,11.63
2018-11-21T15:33:48.598Z,12.57
2018-11-21T15:36:29.559Z,11.93
2018-11-21T15:39:00.940Z,10.93
2018-11-21T15:41:49.329Z,11.97
2018-11-21T15:44:33.144Z,11.10
2018-11-21T15:47:14.763Z,11.63
2018-11-21T15:49:45.976Z,12.30
2018-11-21T15:52:32.548Z,11.53
2018-11-21T15:55:16.918Z,11.00
2018-11-21T15:57:44.153Z,11.23
2018-11-21T16:00:18.879Z,12.30
2018-11-21T16:03:11.820Z,11.93
2018-11-21T16:06:09.710Z,11.73
2018-11-21T16:08:54.541Z,12.23
2018-11-21T16:11:33.850Z,10.77
2018-11-21T16:14:15.268Z,11.20
2018-11-21T16:16:57.260Z,11.50
2018-11-21T16:19:52.668Z,12.37
2018-11-21T16:22:37.953Z,11.13
2018-11-21T16:25:48.171Z,11.00
2018-11-21T16:28:53.770Z,11.67
2018-11-21T16:31:25.488Z,11.33
2018-11-21T16:33:59.092Z,11.63
2018-11-21T16:36:46.180Z,10.60
2018-11-21T16:39:31.758Z,9.83
2018-11-21T16:45:10.220Z,11.07
2018-11-21T16:48:20.006Z,10.97
2018-11-21T16:51:08.501Z,13.23
2018-11-21T16:53:49.420Z,11.80
2018-11-21T16:56:33.885Z,12.33
2018-11-21T16:59:15.413Z,12.93
2018-11-21T17:01:58.106Z,11.53
2018-11-21T17:04:39.404Z,11.63
2018-11-21T17:07:21.273Z,10.73
2018-11-21T17:10:02.414Z,11.17
2018-11-21T17:12:43.789Z,19.37
2018-11-21T17:15:17.430Z,14.80
2018-11-21T17:18:07.121Z,14.40
2018-11-21T17:20:48.118Z,14.93
2018-11-21T17:23:34.914Z,14.10
2018-11-21T17:26:05.433Z,15.40
2018-11-21T17:28:54.825Z,14.97
2018-11-21T17:31:47.374Z,15.60
2018-11-21T17:34:31.555Z,16.20
2018-11-21T17:37:10.738Z,17.13
2018-11-21T17:40:02.603Z,17.57
2018-11-21T17:42:43.693Z,16.00
2018-11-21T17:45:33.073Z,16.83
2018-11-21T17:48:16.319Z,16.80
2018-11-21T17:53:46.675Z,16.50
2018-11-21T17:56:18.977Z,17.60
2018-11-21T17:59:09.533Z,18.70
2018-11-21T18:01:53.705Z,18.07
2018-11-21T18:04:35.299Z,17.60
2018-11-21T18:07:16.309Z,17.80
2018-11-21T18:09:49.283Z,18.37
2018-11-21T18:12:37.980Z,17.70
2018-11-21T18:15:21.314Z,16.10
2018-11-21T18:18:02.209Z,19.90
2018-11-21T18:20:31.753Z,19.07
2018-11-21T18:23:20.058Z,18.70
2018-11-21T18:26:01.036Z,16.90
2018-11-21T18:28:43.712Z,17.37
2018-11-21T18:31:25.237Z,18.70
2018-11-21T18:34:06.971Z,18.67
2018-11-21T18:39:41.135Z,17.60
2018-11-21T18:42:32.644Z,16.33
2018-11-21T18:45:14.923Z,18.10
2018-11-21T18:48:10.279Z,17.73
2018-11-21T18:50:42.335Z,17.20
2018-11-21T18:53:11.067Z,18.07
2018-11-21T18:56:08.215Z,19.13
2018-11-21T18:59:08.322Z,18.37
2018-11-21T19:02:03.732Z,17.87
2018-11-21T19:04:42.532Z,18.70
2018-11-21T19:07:26.112Z,19.63
2018-11-21T19:12:51.362Z,18.53
2018-11-21T19:15:32.486Z,18.63
2018-11-21T19:18:24.676Z,18.43
2018-11-21T19:21:16.085Z,17.47
2018-11-21T19:24:01.248Z,15.63
2018-11-21T19:26:42.619Z,18.47
2018-11-21T19:29:56.937Z,18.90
2018-11-21T19:32:29.842Z,18.40
2018-11-21T19:35:10.374Z,19.00
2018-11-21T19:37:40.601Z,17.20
2018-11-21T19:40:48.358Z,17.00
2018-11-21T19:43:24.120Z,17.33
2018-11-21T19:46:13.619Z,19.30
2018-11-21T19:48:54.981Z,17.57
2018-11-21T19:51:36.407Z,17.97
2018-11-21T19:54:21.489Z,18.87
2018-11-21T19:57:02.488Z,19.03
2018-11-21T19:59:55.895Z,18.93
2018-11-21T20:02:37.104Z,19.03
2018-11-21T20:05:21.699Z,19.93
2018-11-21T20:08:12.941Z,19.80
2018-11-21T20:11:05.812Z,19.37
2018-11-21T20:14:07.530Z,21.07
2018-11-21T20:16:55.931Z,20.70
2018-11-21T20:19:28.029Z,17.47
2018-11-21T20:22:02.044Z,19.63
2018-11-21T20:24:31.372Z,20.13
2018-11-21T20:27:26.867Z,20.33
2018-11-21T20:30:02.278Z,20.50
2018-11-21T20:32:53.877Z,20.93
2018-11-21T20:35:21.374Z,19.60
2018-11-21T20:38:14.681Z,18.73
2018-11-21T20:40:56.394Z,20.73
2018-11-21T20:46:49.949Z,21.73
2018-11-21T20:52:28.782Z,18.63
2018-11-21T20:55:18.117Z,19.23
2018-11-21T20:58:10.638Z,17.73
2018-11-21T21:00:52.201Z,20.90
2018-11-21T21:03:34.019Z,22.77
2018-11-21T21:06:29.937Z,21.10
2018-11-21T21:09:14.143Z,20.00
2018-11-21T21:11:55.097Z,20.10
2018-11-21T21:14:35.927Z,21.07
2018-11-21T21:17:17.080Z,21.37
2018-11-21T21:22:56.465Z,18.50
2018-11-21T21:25:50.342Z,19.73
2018-11-21T21:31:34.765Z,22.33
2018-11-21T21:34:19.082Z,23.03
2018-11-21T21:36:52.659Z,21.13
2018-11-21T21:39:26.399Z,21.27
2018-11-21T21:42:33.834Z,18.37
2018-11-21T21:45:21.612Z,20.13
2018-11-21T21:47:49.888Z,21.60
2018-11-21T21:50:39.002Z,20.07
2018-11-21T21:53:42.069Z,19.47
2018-11-21T21:56:21.073Z,21.80
2018-11-21T22:02:03.001Z,21.97
2018-11-21T22:04:44.286Z,18.57
2018-11-21T22:13:06.229Z,20.07
2018-11-21T22:15:48.854Z,21.57
2018-11-21T22:18:50.841Z,21.53
2018-11-21T22:24:09.692Z,21.10
2018-11-21T22:26:57.531Z,22.20
2018-11-21T22:29:27.100Z,21.13
2018-11-21T22:32:19.364Z,21.87
2018-11-21T22:34:51.438Z,21.80
2018-11-21T22:37:41.920Z,21.17
2018-11-21T22:40:13.839Z,22.63
2018-11-21T22:45:33.476Z,22.30
2018-11-21T22:48:24.702Z,20.63
2018-11-21T22:51:01.858Z,21.53
2018-11-21T22:53:33.142Z,21.37
2018-11-21T22:56:03.821Z,21.87
2018-11-21T22:58:33.468Z,20.03
2018-11-21T23:01:03.259Z,21.40
2018-11-21T23:03:33.367Z,21.53
2018-11-21T23:06:06.912Z,21.73
2018-11-21T23:08:36.403Z,20.33
2018-11-21T23:11:05.870Z,20.97
2018-11-21T23:13:35.011Z,20.27
2018-11-21T23:16:04.762Z,22.07
2018-11-21T23:18:37.824Z,19.77
2018-11-21T23:21:08.837Z,19.93
2018-11-21T23:23:43.961Z,20.47
2018-11-21T23:26:14.105Z,21.23
2018-11-21T23:28:43.443Z,21.57
2018-11-21T23:31:13.425Z,21.10
2018-11-21T23:33:45.327Z,21.27
2018-11-21T23:36:21.422Z,22.37
2018-11-21T23:38:52.827Z,19.57
2018-11-21T23:41:24.277Z,21.93
2018-11-21T23:44:11.465Z,21.37
2018-11-21T23:46:37.252Z,20.60
2018-11-21T23:49:30.718Z,19.27
2018-11-21T23:52:08.365Z,19.37
2018-11-21T23:54:39.545Z,18.40
2018-11-21T23:57:16.597Z,20.53
